Impacts TAF Board
For situational awareness. Not to be used for flight planning purposes.
IDs:

KFHU - Fort Huachuca/Libby, AZ, US

Issued at 2200 UTC 02 Aug 2021
Updated at 2206 UTC 02 Aug 2021
Potential Impact None Slight Moderate High
Time2158Z 02/23Z 03/00Z 03/01Z 03/02Z 03/03Z 03/04Z 03/05Z 03/06Z 03/07Z 03/08Z 03/09Z 03/10Z 03/11Z>>
Type OBS PRVL
  [TEMP]  
PRVL
  [TEMP]  
PRVL
  [TEMP]  
PRVL PRVL
  [TEMP]  
PRVL
  [TEMP]  
PRVL PRVL PRVL PRVL PRVL PRVL PRVL
VIS 10 >6
  [6.21]  
>6
  [6.21]  
>6
  [6.21]  
>6 >6
  [6.21]  
>6
  [6.21]  
>6 >6 >6 >6 >6 >6 >6
CIG -- --
  [--]  
--
  [--]  
--
  [--]  
-- --
  [60]  
60
  [60]  
60 60 60 -- -- -- 70
Cover CLR SCT
  [SCT]  
SCT
  [SCT]  
SCT
  [SCT]  
SCT SCT
  [BKN]  
BKN
  [BKN]  
BKN BKN BKN SCT SCT SCT BKN
FltCat VFR VFR
  [VFR]  
VFR
  [VFR]  
VFR
  [VFR]  
VFR VFR
  [VFR]  
VFR
  [VFR]  
VFR VFR VFR VFR VFR VFR VFR
WX -- --
  [VCTS]  
--
  [VCTS]  
--
  [VCTS]  
-- --
  [VCTS]  
--
  [VCTS]  
-- -- -- -- -- -- --
WDir VRB 50
[VRB]
50
[VRB]
70
[VRB]
70 70
[VRB]
120
[VRB]
120 120 120 150 150 150 160
WSpd 0 10
  [15]  
10
  [15]  
7
  [15]  
7 7
  [15]  
4
  [15]  
4 4 4 6 6 6 6
WGst -- 16
  [25]  
16
  [25]  
--
  [25]  
-- --
  [25]  
--
  [25]  
-- -- -- -- -- -- --
Raw TAF
TAF KFHU 022200Z 0222/0404 05010G16KT 9999 SCT060 510002 QNH3017INS
  TEMPO 0222/0302 VRB15G25KT 9999 VCTS SCT060CB
  BECMG 0301/0302 07007KT 9999 SCT060 QNH3018INS
  TEMPO 0303/0305 VRB15G25KT 9999 VCTS BKN060CB
  BECMG 0304/0305 12004KT 9999 BKN060 QNH3017INS
  BECMG 0308/0309 15006KT 9999 SCT055 QNH3017INS
  BECMG 0311/0312 16006KT 9999 BKN070 QNH3016INS
  BECMG 0318/0319 01008KT 9999 FEW075 510007 QNH3007INS
  BECMG 0322/0323 34010G15KT 9999 SCT080 510003 QNH3006INS
  TEMPO 0400/0403 VRB14G25KT 9999 VCTS BKN080CB TX32/0222Z TN21/0312Z


Raw METAR
KFHU 022158Z 00000KT 10SM CLR 32/14 A3019 RMK AO2A LTG DSNT SW SLP141 T03200139
KFHU 022118Z 35004KT 10SM CLR 31/14 A3020 RMK AO2A SLP147
KFHU 022058Z 31006KT 10SM CLR 31/15 A3022 RMK AO2A SLP154 T03120145 57017
KFHU 022018Z 35008KT 10SM CLR 31/15 A3023 RMK AO2A LTG DSNT SW SLP157 57014
KFHU 021958Z 05006KT 10SM CLR 31/16 A3025 RMK AO2A LTG DSNT SW SLP164 T03090155

METAR Board
For situational awareness. Not to be used for flight planning purposes.